map of HUJ home
Great Circle Mapper logo
HUJ - Airport
Location
City:  Hugo, Oklahoma, United States
Name:Stan Stamper Municipal Airport
ICAO / IATA:KHHW / HUJ
FAA:HHW

Details
Type:Airport (Airfield)
Use:Public/Civil
Latitude:3402'01"N (34.033639)
Longitude:9532'31"W (-95.542055)
Datum:WGS 1984
Elevation:572 ft (174 m)
Runways:1
Longest:4007 × 75 ft (1221 × 23 m), paved

Time
Time Zone:UTC-6 (DST-5)
Local Time:

Weather
METAR:KHHW 302255Z AUTO 12009KT 10SM -RA SCT008 SCT060 BKN095 23/21 A3000 RMK AO2 T02300206

Related Locations
Nearby:
Farthest:RRG: 10815 mi / 17404 km
Plaine Corail, Rodrigues Island, MU

Find:

   beyond  
but within

Other Information
Maps:
NOTAMs:
Links:
Sources:

  
flag of United States
flag of Oklahoma
  

Sectional Chart

Flight Planning
at skyvector.com

Satellite Image

Google Maps Satellite View

 

Copyright © 2004-2014 Karl L. Swartz. All rights reserved.
The Great Circle Mapper name and logo are trademarks of the Great Circle Mapper.
All other trademarks mentioned herein belong to their respective owners.
Please see credits for attibutions and further copyright information.

  Follow gcmap on Facebook Follow gcmap on Twitter

hCard Microformat

Geo Microformat